sensor_id;sensor_type;location;lat;lon;timestamp;P1;durP1;ratioP1;P2;durP2;ratioP2
18623;SDS011;9441;51.420;7.036;2023-04-24T00:00:48;2.27;;;1.10;;
18623;SDS011;9441;51.420;7.036;2023-04-24T00:01:51;2.47;;;0.80;;
18623;SDS011;9441;51.420;7.036;2023-04-24T00:02:53;2.00;;;1.17;;
18623;SDS011;9441;51.420;7.036;2023-04-24T00:03:57;2.20;;;1.10;;
18623;SDS011;9441;51.420;7.036;2023-04-24T00:04:59;3.70;;;0.90;;
18623;SDS011;9441;51.420;7.036;2023-04-24T00:06:03;2.03;;;1.20;;
18623;SDS011;9441;51.420;7.036;2023-04-24T00:07:05;1.63;;;0.93;;
18623;SDS011;9441;51.420;7.036;2023-04-24T00:08:07;1.33;;;1.00;;
18623;SDS011;9441;51.420;7.036;2023-04-24T00:09:09;1.30;;;1.20;;
18623;SDS011;9441;51.420;7.036;2023-04-24T00:10:11;3.30;;;1.33;;
18623;SDS011;9441;51.420;7.036;2023-04-24T00:11:12;3.17;;;1.30;;
18623;SDS011;9441;51.420;7.036;2023-04-24T00:12:15;2.47;;;1.23;;
18623;SDS011;9441;51.420;7.036;2023-04-24T00:13:17;1.20;;;1.10;;
18623;SDS011;9441;51.420;7.036;2023-04-24T00:14:20;2.17;;;1.30;;
18623;SDS011;9441;51.420;7.036;2023-04-24T00:15:21;1.40;;;1.30;;
18623;SDS011;9441;51.420;7.036;2023-04-24T00:16:24;1.30;;;1.20;;
18623;SDS011;9441;51.420;7.036;2023-04-24T00:17:25;4.40;;;1.57;;
18623;SDS011;9441;51.420;7.036;2023-04-24T00:18:27;1.60;;;1.30;;
18623;SDS011;9441;51.420;7.036;2023-04-24T00:19:29;3.10;;;1.67;;
18623;SDS011;9441;51.420;7.036;2023-04-24T00:20:31;2.87;;;1.27;;
18623;SDS011;9441;51.420;7.036;2023-04-24T00:21:33;2.97;;;1.23;;
18623;SDS011;9441;51.420;7.036;2023-04-24T00:22:36;3.73;;;1.23;;
18623;SDS011;9441;51.420;7.036;2023-04-24T00:23:37;2.07;;;1.30;;
18623;SDS011;9441;51.420;7.036;2023-04-24T00:24:39;3.73;;;1.40;;
18623;SDS011;9441;51.420;7.036;2023-04-24T00:25:41;1.60;;;1.37;;
18623;SDS011;9441;51.420;7.036;2023-04-24T00:26:43;1.30;;;1.20;;
18623;SDS011;9441;51.420;7.036;2023-04-24T00:27:44;1.60;;;1.30;;
18623;SDS011;9441;51.420;7.036;2023-04-24T00:28:48;2.53;;;1.33;;
18623;SDS011;9441;51.420;7.036;2023-04-24T00:29:49;2.30;;;1.73;;
18623;SDS011;9441;51.420;7.036;2023-04-24T00:30:52;4.07;;;1.40;;
18623;SDS011;9441;51.420;7.036;2023-04-24T00:31:53;1.37;;;1.27;;
18623;SDS011;9441;51.420;7.036;2023-04-24T00:32:56;2.43;;;1.40;;
18623;SDS011;9441;51.420;7.036;2023-04-24T00:33:58;2.23;;;1.60;;
18623;SDS011;9441;51.420;7.036;2023-04-24T00:35:00;2.20;;;1.30;;
18623;SDS011;9441;51.420;7.036;2023-04-24T00:36:01;1.53;;;1.30;;
18623;SDS011;9441;51.420;7.036;2023-04-24T00:37:04;2.80;;;1.50;;
18623;SDS011;9441;51.420;7.036;2023-04-24T00:38:05;2.30;;;1.40;;
18623;SDS011;9441;51.420;7.036;2023-04-24T00:39:07;4.17;;;1.50;;
18623;SDS011;9441;51.420;7.036;2023-04-24T00:40:09;3.53;;;1.60;;
18623;SDS011;9441;51.420;7.036;2023-04-24T00:41:12;3.23;;;1.43;;
18623;SDS011;9441;51.420;7.036;2023-04-24T00:42:13;1.93;;;1.30;;
18623;SDS011;9441;51.420;7.036;2023-04-24T00:43:15;2.03;;;1.40;;
18623;SDS011;9441;51.420;7.036;2023-04-24T00:44:18;2.40;;;1.47;;
18623;SDS011;9441;51.420;7.036;2023-04-24T00:45:20;1.97;;;1.60;;
18623;SDS011;9441;51.420;7.036;2023-04-24T00:46:22;2.83;;;1.30;;
18623;SDS011;9441;51.420;7.036;2023-04-24T00:47:24;1.60;;;1.50;;
18623;SDS011;9441;51.420;7.036;2023-04-24T00:48:26;4.93;;;1.37;;
18623;SDS011;9441;51.420;7.036;2023-04-24T00:49:28;3.37;;;1.50;;
18623;SDS011;9441;51.420;7.036;2023-04-24T00:50:30;2.80;;;1.50;;
18623;SDS011;9441;51.420;7.036;2023-04-24T00:51:32;2.53;;;1.40;;
18623;SDS011;9441;51.420;7.036;2023-04-24T00:52:34;3.67;;;1.80;;
18623;SDS011;9441;51.420;7.036;2023-04-24T00:53:37;1.83;;;1.43;;
18623;SDS011;9441;51.420;7.036;2023-04-24T00:54:38;5.83;;;1.73;;
18623;SDS011;9441;51.420;7.036;2023-04-24T00:55:41;1.70;;;1.60;;
18623;SDS011;9441;51.420;7.036;2023-04-24T00:56:42;1.70;;;1.50;;
18623;SDS011;9441;51.420;7.036;2023-04-24T00:57:45;3.80;;;1.67;;
18623;SDS011;9441;51.420;7.036;2023-04-24T00:58:46;4.00;;;1.43;;
18623;SDS011;9441;51.420;7.036;2023-04-24T00:59:50;1.50;;;1.40;;
18623;SDS011;9441;51.420;7.036;2023-04-24T01:00:52;2.73;;;1.70;;
18623;SDS011;9441;51.420;7.036;2023-04-24T01:01:55;3.23;;;1.73;;
18623;SDS011;9441;51.420;7.036;2023-04-24T01:02:57;5.10;;;1.90;;
18623;SDS011;9441;51.420;7.036;2023-04-24T01:04:00;1.90;;;1.80;;
18623;SDS011;9441;51.420;7.036;2023-04-24T01:05:01;2.07;;;1.80;;
18623;SDS011;9441;51.420;7.036;2023-04-24T01:06:04;1.80;;;1.70;;
18623;SDS011;9441;51.420;7.036;2023-04-24T01:07:06;5.17;;;1.93;;
18623;SDS011;9441;51.420;7.036;2023-04-24T01:08:10;2.77;;;2.00;;
18623;SDS011;9441;51.420;7.036;2023-04-24T01:09:13;3.03;;;1.93;;
18623;SDS011;9441;51.420;7.036;2023-04-24T01:10:15;2.67;;;2.00;;
18623;SDS011;9441;51.420;7.036;2023-04-24T01:11:20;6.70;;;2.47;;
18623;SDS011;9441;51.420;7.036;2023-04-24T01:12:22;3.73;;;2.40;;
18623;SDS011;9441;51.420;7.036;2023-04-24T01:13:24;3.80;;;2.17;;
18623;SDS011;9441;51.420;7.036;2023-04-24T01:14:25;3.40;;;2.10;;
18623;SDS011;9441;51.420;7.036;2023-04-24T01:15:29;4.80;;;2.20;;
18623;SDS011;9441;51.420;7.036;2023-04-24T01:16:30;3.63;;;2.23;;
18623;SDS011;9441;51.420;7.036;2023-04-24T01:17:35;3.93;;;2.10;;
18623;SDS011;9441;51.420;7.036;2023-04-24T01:18:36;4.77;;;2.33;;
18623;SDS011;9441;51.420;7.036;2023-04-24T01:19:39;4.83;;;2.57;;
18623;SDS011;9441;51.420;7.036;2023-04-24T01:20:41;3.70;;;2.40;;
18623;SDS011;9441;51.420;7.036;2023-04-24T01:21:44;2.67;;;2.17;;
18623;SDS011;9441;51.420;7.036;2023-04-24T01:22:48;5.27;;;2.90;;
18623;SDS011;9441;51.420;7.036;2023-04-24T01:23:50;3.13;;;2.33;;
18623;SDS011;9441;51.420;7.036;2023-04-24T01:24:52;5.90;;;2.60;;
18623;SDS011;9441;51.420;7.036;2023-04-24T01:25:55;5.23;;;2.83;;
18623;SDS011;9441;51.420;7.036;2023-04-24T01:26:56;6.93;;;2.97;;
18623;SDS011;9441;51.420;7.036;2023-04-24T01:27:58;7.03;;;3.07;;
18623;SDS011;9441;51.420;7.036;2023-04-24T01:29:00;4.77;;;3.00;;
18623;SDS011;9441;51.420;7.036;2023-04-24T01:30:03;5.27;;;3.00;;
18623;SDS011;9441;51.420;7.036;2023-04-24T01:31:05;10.13;;;3.73;;
18623;SDS011;9441;51.420;7.036;2023-04-24T01:32:08;6.00;;;3.40;;
18623;SDS011;9441;51.420;7.036;2023-04-24T01:33:09;5.67;;;3.40;;
18623;SDS011;9441;51.420;7.036;2023-04-24T01:34:12;6.53;;;3.63;;
18623;SDS011;9441;51.420;7.036;2023-04-24T01:35:13;5.10;;;3.53;;
18623;SDS011;9441;51.420;7.036;2023-04-24T01:36:15;4.17;;;3.60;;
18623;SDS011;9441;51.420;7.036;2023-04-24T01:37:18;7.40;;;4.07;;
18623;SDS011;9441;51.420;7.036;2023-04-24T01:38:21;5.83;;;3.33;;
18623;SDS011;9441;51.420;7.036;2023-04-24T01:39:23;8.37;;;3.20;;
18623;SDS011;9441;51.420;7.036;2023-04-24T01:40:27;6.73;;;3.50;;
18623;SDS011;9441;51.420;7.036;2023-04-24T01:41:31;5.97;;;3.60;;
18623;SDS011;9441;51.420;7.036;2023-04-24T01:42:33;5.57;;;3.43;;
18623;SDS011;9441;51.420;7.036;2023-04-24T01:43:36;6.73;;;3.27;;
18623;SDS011;9441;51.420;7.036;2023-04-24T01:44:37;5.90;;;3.80;;
18623;SDS011;9441;51.420;7.036;2023-04-24T01:45:40;4.13;;;3.47;;
18623;SDS011;9441;51.420;7.036;2023-04-24T01:46:41;6.53;;;3.77;;
18623;SDS011;9441;51.420;7.036;2023-04-24T01:47:44;4.30;;;3.67;;
18623;SDS011;9441;51.420;7.036;2023-04-24T01:48:47;6.27;;;3.20;;
18623;SDS011;9441;51.420;7.036;2023-04-24T01:49:48;5.03;;;3.50;;
18623;SDS011;9441;51.420;7.036;2023-04-24T01:50:51;5.80;;;3.57;;
18623;SDS011;9441;51.420;7.036;2023-04-24T01:51:53;5.70;;;3.53;;
18623;SDS011;9441;51.420;7.036;2023-04-24T01:52:55;4.50;;;3.70;;
18623;SDS011;9441;51.420;7.036;2023-04-24T01:53:58;8.63;;;3.73;;
18623;SDS011;9441;51.420;7.036;2023-04-24T01:55:00;5.83;;;3.73;;
18623;SDS011;9441;51.420;7.036;2023-04-24T01:56:02;4.27;;;3.40;;
18623;SDS011;9441;51.420;7.036;2023-04-24T01:57:04;4.33;;;3.73;;
18623;SDS011;9441;51.420;7.036;2023-04-24T01:58:06;6.33;;;3.73;;
18623;SDS011;9441;51.420;7.036;2023-04-24T01:59:09;5.97;;;3.53;;
18623;SDS011;9441;51.420;7.036;2023-04-24T02:00:11;6.37;;;4.00;;
18623;SDS011;9441;51.420;7.036;2023-04-24T02:01:15;4.23;;;3.80;;
18623;SDS011;9441;51.420;7.036;2023-04-24T02:02:16;6.20;;;3.97;;
18623;SDS011;9441;51.420;7.036;2023-04-24T02:03:18;5.17;;;3.80;;
18623;SDS011;9441;51.420;7.036;2023-04-24T02:04:22;6.60;;;4.00;;
18623;SDS011;9441;51.420;7.036;2023-04-24T02:05:25;12.03;;;5.10;;
18623;SDS011;9441;51.420;7.036;2023-04-24T02:06:26;9.27;;;4.63;;
18623;SDS011;9441;51.420;7.036;2023-04-24T02:07:28;6.60;;;4.77;;
18623;SDS011;9441;51.420;7.036;2023-04-24T02:08:31;6.67;;;5.07;;
18623;SDS011;9441;51.420;7.036;2023-04-24T02:09:33;5.57;;;4.30;;
18623;SDS011;9441;51.420;7.036;2023-04-24T02:10:35;6.93;;;4.53;;
18623;SDS011;9441;51.420;7.036;2023-04-24T02:11:37;8.53;;;4.97;;
18623;SDS011;9441;51.420;7.036;2023-04-24T02:12:39;9.57;;;5.70;;
18623;SDS011;9441;51.420;7.036;2023-04-24T02:13:40;12.80;;;6.10;;
18623;SDS011;9441;51.420;7.036;2023-04-24T02:14:43;10.53;;;6.10;;
18623;SDS011;9441;51.420;7.036;2023-04-24T02:15:44;9.63;;;5.90;;
18623;SDS011;9441;51.420;7.036;2023-04-24T02:16:46;10.93;;;6.10;;
18623;SDS011;9441;51.420;7.036;2023-04-24T02:17:47;11.40;;;6.53;;
18623;SDS011;9441;51.420;7.036;2023-04-24T02:18:50;10.37;;;5.87;;
18623;SDS011;9441;51.420;7.036;2023-04-24T02:19:51;11.30;;;6.30;;
18623;SDS011;9441;51.420;7.036;2023-04-24T02:20:53;11.47;;;7.07;;
18623;SDS011;9441;51.420;7.036;2023-04-24T02:21:55;12.47;;;6.33;;
18623;SDS011;9441;51.420;7.036;2023-04-24T02:22:57;12.83;;;7.20;;
18623;SDS011;9441;51.420;7.036;2023-04-24T02:23:59;12.97;;;6.83;;
18623;SDS011;9441;51.420;7.036;2023-04-24T02:25:03;13.67;;;6.93;;
18623;SDS011;9441;51.420;7.036;2023-04-24T02:26:06;12.00;;;6.73;;
18623;SDS011;9441;51.420;7.036;2023-04-24T02:27:08;10.97;;;6.73;;
18623;SDS011;9441;51.420;7.036;2023-04-24T02:28:10;13.87;;;7.03;;
18623;SDS011;9441;51.420;7.036;2023-04-24T02:29:12;12.03;;;7.30;;
18623;SDS011;9441;51.420;7.036;2023-04-24T02:30:15;13.03;;;7.30;;
18623;SDS011;9441;51.420;7.036;2023-04-24T02:31:17;12.23;;;7.67;;
18623;SDS011;9441;51.420;7.036;2023-04-24T02:32:18;17.33;;;7.63;;
18623;SDS011;9441;51.420;7.036;2023-04-24T02:33:21;16.43;;;7.93;;
18623;SDS011;9441;51.420;7.036;2023-04-24T02:34:22;14.47;;;7.80;;
18623;SDS011;9441;51.420;7.036;2023-04-24T02:35:24;12.70;;;7.50;;
18623;SDS011;9441;51.420;7.036;2023-04-24T02:36:26;19.13;;;7.70;;
18623;SDS011;9441;51.420;7.036;2023-04-24T02:37:28;12.97;;;7.60;;
18623;SDS011;9441;51.420;7.036;2023-04-24T02:38:29;14.67;;;7.90;;
18623;SDS011;9441;51.420;7.036;2023-04-24T02:39:32;15.20;;;8.27;;
18623;SDS011;9441;51.420;7.036;2023-04-24T02:40:34;17.07;;;8.13;;
18623;SDS011;9441;51.420;7.036;2023-04-24T02:41:37;16.37;;;8.27;;
18623;SDS011;9441;51.420;7.036;2023-04-24T02:42:38;12.67;;;7.70;;
18623;SDS011;9441;51.420;7.036;2023-04-24T02:43:40;15.53;;;8.77;;
18623;SDS011;9441;51.420;7.036;2023-04-24T02:44:42;18.57;;;8.73;;
18623;SDS011;9441;51.420;7.036;2023-04-24T02:45:44;15.70;;;8.57;;
18623;SDS011;9441;51.420;7.036;2023-04-24T02:46:45;16.37;;;9.30;;
18623;SDS011;9441;51.420;7.036;2023-04-24T02:47:48;12.73;;;8.30;;
18623;SDS011;9441;51.420;7.036;2023-04-24T02:48:49;18.03;;;9.23;;
18623;SDS011;9441;51.420;7.036;2023-04-24T02:49:51;17.77;;;8.63;;
18623;SDS011;9441;51.420;7.036;2023-04-24T02:50:52;17.83;;;9.60;;
18623;SDS011;9441;51.420;7.036;2023-04-24T02:51:55;14.60;;;9.17;;
18623;SDS011;9441;51.420;7.036;2023-04-24T02:52:56;16.07;;;8.70;;
18623;SDS011;9441;51.420;7.036;2023-04-24T02:53:58;14.13;;;8.67;;
18623;SDS011;9441;51.420;7.036;2023-04-24T02:55:00;16.83;;;9.13;;
18623;SDS011;9441;51.420;7.036;2023-04-24T02:56:03;19.37;;;10.20;;
18623;SDS011;9441;51.420;7.036;2023-04-24T02:57:05;15.53;;;9.60;;
18623;SDS011;9441;51.420;7.036;2023-04-24T02:58:07;17.67;;;9.00;;
18623;SDS011;9441;51.420;7.036;2023-04-24T02:59:09;15.53;;;9.60;;
18623;SDS011;9441;51.420;7.036;2023-04-24T03:00:11;18.90;;;9.60;;
18623;SDS011;9441;51.420;7.036;2023-04-24T03:01:13;15.90;;;9.60;;
18623;SDS011;9441;51.420;7.036;2023-04-24T03:02:16;20.83;;;10.53;;
18623;SDS011;9441;51.420;7.036;2023-04-24T03:03:17;18.63;;;10.23;;
18623;SDS011;9441;51.420;7.036;2023-04-24T03:04:19;16.50;;;9.30;;
18623;SDS011;9441;51.420;7.036;2023-04-24T03:05:22;13.87;;;9.20;;
18623;SDS011;9441;51.420;7.036;2023-04-24T03:06:25;18.33;;;9.33;;
18623;SDS011;9441;51.420;7.036;2023-04-24T03:07:27;16.50;;;9.67;;
18623;SDS011;9441;51.420;7.036;2023-04-24T03:08:29;19.43;;;9.63;;
18623;SDS011;9441;51.420;7.036;2023-04-24T03:09:31;21.53;;;10.43;;
18623;SDS011;9441;51.420;7.036;2023-04-24T03:10:33;19.87;;;10.13;;
18623;SDS011;9441;51.420;7.036;2023-04-24T03:11:36;17.40;;;10.00;;
18623;SDS011;9441;51.420;7.036;2023-04-24T03:12:38;19.30;;;9.47;;
18623;SDS011;9441;51.420;7.036;2023-04-24T03:13:40;21.23;;;10.43;;
18623;SDS011;9441;51.420;7.036;2023-04-24T03:14:42;17.47;;;9.83;;
18623;SDS011;9441;51.420;7.036;2023-04-24T03:15:43;14.40;;;9.80;;
18623;SDS011;9441;51.420;7.036;2023-04-24T03:16:46;21.30;;;9.40;;
18623;SDS011;9441;51.420;7.036;2023-04-24T03:17:48;22.17;;;9.80;;
18623;SDS011;9441;51.420;7.036;2023-04-24T03:18:50;20.23;;;10.90;;
18623;SDS011;9441;51.420;7.036;2023-04-24T03:19:52;18.63;;;9.83;;
18623;SDS011;9441;51.420;7.036;2023-04-24T03:20:55;20.93;;;9.93;;
18623;SDS011;9441;51.420;7.036;2023-04-24T03:21:56;15.97;;;9.77;;
18623;SDS011;9441;51.420;7.036;2023-04-24T03:22:59;18.80;;;10.30;;
18623;SDS011;9441;51.420;7.036;2023-04-24T03:24:00;22.00;;;10.90;;
18623;SDS011;9441;51.420;7.036;2023-04-24T03:25:04;21.20;;;10.50;;
18623;SDS011;9441;51.420;7.036;2023-04-24T03:26:05;19.37;;;10.63;;
18623;SDS011;9441;51.420;7.036;2023-04-24T03:27:11;23.83;;;11.27;;
18623;SDS011;9441;51.420;7.036;2023-04-24T03:28:26;26.83;;;10.40;;
18623;SDS011;9441;51.420;7.036;2023-04-24T03:29:34;16.20;;;9.60;;
18623;SDS011;9441;51.420;7.036;2023-04-24T03:30:36;19.10;;;10.20;;
18623;SDS011;9441;51.420;7.036;2023-04-24T03:31:39;19.13;;;9.83;;
18623;SDS011;9441;51.420;7.036;2023-04-24T03:32:40;18.33;;;10.10;;
18623;SDS011;9441;51.420;7.036;2023-04-24T03:33:46;20.70;;;10.30;;
18623;SDS011;9441;51.420;7.036;2023-04-24T03:34:47;18.77;;;10.20;;
18623;SDS011;9441;51.420;7.036;2023-04-24T03:35:50;22.23;;;10.43;;
18623;SDS011;9441;51.420;7.036;2023-04-24T03:36:51;23.23;;;10.73;;
18623;SDS011;9441;51.420;7.036;2023-04-24T03:37:53;23.83;;;11.07;;
18623;SDS011;9441;51.420;7.036;2023-04-24T03:39:21;21.43;;;10.83;;
18623;SDS011;9441;51.420;7.036;2023-04-24T03:40:28;20.40;;;10.30;;
18623;SDS011;9441;51.420;7.036;2023-04-24T03:41:30;23.13;;;10.93;;
18623;SDS011;9441;51.420;7.036;2023-04-24T03:42:43;23.60;;;12.13;;
18623;SDS011;9441;51.420;7.036;2023-04-24T03:43:44;21.83;;;10.93;;
18623;SDS011;9441;51.420;7.036;2023-04-24T03:44:47;20.10;;;10.63;;
18623;SDS011;9441;51.420;7.036;2023-04-24T03:45:48;20.23;;;10.93;;
18623;SDS011;9441;51.420;7.036;2023-04-24T03:46:52;20.60;;;10.70;;
18623;SDS011;9441;51.420;7.036;2023-04-24T03:47:55;16.97;;;10.13;;
18623;SDS011;9441;51.420;7.036;2023-04-24T03:48:58;18.93;;;10.83;;
18623;SDS011;9441;51.420;7.036;2023-04-24T03:50:04;19.97;;;10.87;;
18623;SDS011;9441;51.420;7.036;2023-04-24T03:51:07;20.63;;;10.20;;
18623;SDS011;9441;51.420;7.036;2023-04-24T03:52:11;21.67;;;11.47;;
18623;SDS011;9441;51.420;7.036;2023-04-24T03:53:14;19.73;;;10.43;;
18623;SDS011;9441;51.420;7.036;2023-04-24T03:54:16;18.50;;;10.40;;
18623;SDS011;9441;51.420;7.036;2023-04-24T03:55:19;19.17;;;9.90;;
18623;SDS011;9441;51.420;7.036;2023-04-24T03:56:22;22.37;;;10.77;;
18623;SDS011;9441;51.420;7.036;2023-04-24T03:57:24;20.13;;;10.37;;
18623;SDS011;9441;51.420;7.036;2023-04-24T03:58:47;17.83;;;10.27;;
18623;SDS011;9441;51.420;7.036;2023-04-24T03:59:49;18.90;;;9.73;;
18623;SDS011;9441;51.420;7.036;2023-04-24T04:00:52;20.83;;;10.93;;
18623;SDS011;9441;51.420;7.036;2023-04-24T04:02:18;19.60;;;10.37;;
18623;SDS011;9441;51.420;7.036;2023-04-24T04:03:21;19.03;;;10.17;;
18623;SDS011;9441;51.420;7.036;2023-04-24T04:04:23;17.70;;;10.47;;
18623;SDS011;9441;51.420;7.036;2023-04-24T04:05:25;19.10;;;9.90;;
18623;SDS011;9441;51.420;7.036;2023-04-24T04:06:26;21.03;;;10.30;;
18623;SDS011;9441;51.420;7.036;2023-04-24T04:07:32;19.50;;;10.37;;
18623;SDS011;9441;51.420;7.036;2023-04-24T04:08:34;19.80;;;10.73;;
18623;SDS011;9441;51.420;7.036;2023-04-24T04:09:36;19.70;;;10.10;;
18623;SDS011;9441;51.420;7.036;2023-04-24T04:10:38;22.10;;;10.13;;
18623;SDS011;9441;51.420;7.036;2023-04-24T04:11:41;20.13;;;9.93;;
18623;SDS011;9441;51.420;7.036;2023-04-24T04:12:42;17.07;;;10.10;;
18623;SDS011;9441;51.420;7.036;2023-04-24T04:13:44;20.00;;;10.50;;
18623;SDS011;9441;51.420;7.036;2023-04-24T04:14:49;23.17;;;10.20;;
18623;SDS011;9441;51.420;7.036;2023-04-24T04:15:52;17.97;;;10.23;;
18623;SDS011;9441;51.420;7.036;2023-04-24T04:16:53;19.03;;;10.57;;
18623;SDS011;9441;51.420;7.036;2023-04-24T04:17:56;20.90;;;10.10;;
18623;SDS011;9441;51.420;7.036;2023-04-24T04:18:57;22.97;;;10.90;;
18623;SDS011;9441;51.420;7.036;2023-04-24T04:19:59;20.63;;;11.00;;
18623;SDS011;9441;51.420;7.036;2023-04-24T04:21:02;19.90;;;10.80;;
18623;SDS011;9441;51.420;7.036;2023-04-24T04:22:04;20.30;;;11.30;;
18623;SDS011;9441;51.420;7.036;2023-04-24T04:23:14;21.57;;;10.33;;
18623;SDS011;9441;51.420;7.036;2023-04-24T04:24:36;18.60;;;10.60;;
18623;SDS011;9441;51.420;7.036;2023-04-24T04:25:41;15.83;;;10.47;;
18623;SDS011;9441;51.420;7.036;2023-04-24T04:26:42;19.83;;;10.93;;
18623;SDS011;9441;51.420;7.036;2023-04-24T04:27:47;24.00;;;10.67;;
18623;SDS011;9441;51.420;7.036;2023-04-24T04:28:48;21.17;;;10.33;;
18623;SDS011;9441;51.420;7.036;2023-04-24T04:29:52;16.83;;;10.50;;
18623;SDS011;9441;51.420;7.036;2023-04-24T04:30:54;20.43;;;10.37;;
18623;SDS011;9441;51.420;7.036;2023-04-24T04:31:57;18.57;;;10.23;;
18623;SDS011;9441;51.420;7.036;2023-04-24T04:32:59;22.83;;;10.93;;
18623;SDS011;9441;51.420;7.036;2023-04-24T04:34:02;20.90;;;10.93;;
18623;SDS011;9441;51.420;7.036;2023-04-24T04:35:06;23.67;;;10.77;;
18623;SDS011;9441;51.420;7.036;2023-04-24T04:36:09;19.83;;;10.33;;
18623;SDS011;9441;51.420;7.036;2023-04-24T04:37:16;19.77;;;10.30;;
18623;SDS011;9441;51.420;7.036;2023-04-24T04:38:27;22.83;;;10.83;;
18623;SDS011;9441;51.420;7.036;2023-04-24T04:39:40;20.73;;;10.00;;
18623;SDS011;9441;51.420;7.036;2023-04-24T04:40:55;18.67;;;10.57;;
18623;SDS011;9441;51.420;7.036;2023-04-24T04:41:58;18.20;;;10.27;;
18623;SDS011;9441;51.420;7.036;2023-04-24T04:43:05;15.93;;;9.80;;
18623;SDS011;9441;51.420;7.036;2023-04-24T04:44:15;21.23;;;10.20;;
18623;SDS011;9441;51.420;7.036;2023-04-24T04:45:18;19.23;;;10.20;;
18623;SDS011;9441;51.420;7.036;2023-04-24T04:46:40;18.37;;;9.50;;
18623;SDS011;9441;51.420;7.036;2023-04-24T04:47:53;18.03;;;10.23;;
18623;SDS011;9441;51.420;7.036;2023-04-24T04:48:56;19.23;;;10.10;;
18623;SDS011;9441;51.420;7.036;2023-04-24T04:49:58;17.73;;;9.97;;
18623;SDS011;9441;51.420;7.036;2023-04-24T04:51:02;17.10;;;10.37;;
18623;SDS011;9441;51.420;7.036;2023-04-24T04:52:03;18.93;;;10.00;;
18623;SDS011;9441;51.420;7.036;2023-04-24T04:53:06;19.60;;;10.37;;
18623;SDS011;9441;51.420;7.036;2023-04-24T04:54:11;24.20;;;11.53;;
18623;SDS011;9441;51.420;7.036;2023-04-24T04:55:14;16.73;;;10.00;;
18623;SDS011;9441;51.420;7.036;2023-04-24T04:56:38;17.43;;;9.73;;
18623;SDS011;9441;51.420;7.036;2023-04-24T04:57:40;20.07;;;9.70;;
18623;SDS011;9441;51.420;7.036;2023-04-24T04:58:42;18.53;;;10.10;;
18623;SDS011;9441;51.420;7.036;2023-04-24T04:59:48;15.90;;;9.80;;
18623;SDS011;9441;51.420;7.036;2023-04-24T05:01:01;17.40;;;10.47;;
18623;SDS011;9441;51.420;7.036;2023-04-24T05:02:08;25.53;;;9.30;;
18623;SDS011;9441;51.420;7.036;2023-04-24T05:03:10;17.27;;;9.90;;
18623;SDS011;9441;51.420;7.036;2023-04-24T05:04:12;18.73;;;9.90;;
18623;SDS011;9441;51.420;7.036;2023-04-24T05:05:15;18.63;;;9.93;;
18623;SDS011;9441;51.420;7.036;2023-04-24T05:06:17;16.23;;;9.53;;
18623;SDS011;9441;51.420;7.036;2023-04-24T05:07:20;16.23;;;9.47;;
18623;SDS011;9441;51.420;7.036;2023-04-24T05:08:25;16.93;;;9.50;;
18623;SDS011;9441;51.420;7.036;2023-04-24T05:09:27;16.77;;;9.17;;
18623;SDS011;9441;51.420;7.036;2023-04-24T05:10:35;15.60;;;9.13;;
18623;SDS011;9441;51.420;7.036;2023-04-24T05:11:38;13.27;;;8.43;;
18623;SDS011;9441;51.420;7.036;2023-04-24T05:12:39;18.73;;;9.67;;
18623;SDS011;9441;51.420;7.036;2023-04-24T05:13:42;14.33;;;8.93;;
18623;SDS011;9441;51.420;7.036;2023-04-24T05:14:49;15.63;;;9.27;;
18623;SDS011;9441;51.420;7.036;2023-04-24T05:15:51;18.17;;;8.97;;
18623;SDS011;9441;51.420;7.036;2023-04-24T05:16:54;14.70;;;8.47;;
18623;SDS011;9441;51.420;7.036;2023-04-24T05:17:59;18.13;;;8.77;;
18623;SDS011;9441;51.420;7.036;2023-04-24T05:19:02;13.43;;;8.23;;
18623;SDS011;9441;51.420;7.036;2023-04-24T05:20:09;17.17;;;8.77;;
18623;SDS011;9441;51.420;7.036;2023-04-24T05:21:11;14.83;;;8.73;;
18623;SDS011;9441;51.420;7.036;2023-04-24T05:22:15;17.07;;;8.67;;
18623;SDS011;9441;51.420;7.036;2023-04-24T05:23:23;19.27;;;8.73;;
18623;SDS011;9441;51.420;7.036;2023-04-24T05:24:27;13.40;;;8.90;;
18623;SDS011;9441;51.420;7.036;2023-04-24T05:25:29;14.77;;;9.07;;
18623;SDS011;9441;51.420;7.036;2023-04-24T05:26:39;17.37;;;9.70;;
18623;SDS011;9441;51.420;7.036;2023-04-24T05:27:42;12.87;;;8.73;;
18623;SDS011;9441;51.420;7.036;2023-04-24T05:28:48;15.80;;;8.93;;
18623;SDS011;9441;51.420;7.036;2023-04-24T05:29:51;18.30;;;9.10;;
18623;SDS011;9441;51.420;7.036;2023-04-24T05:30:53;16.70;;;9.57;;
18623;SDS011;9441;51.420;7.036;2023-04-24T05:32:00;17.00;;;10.47;;
18623;SDS011;9441;51.420;7.036;2023-04-24T05:33:03;17.83;;;10.07;;
18623;SDS011;9441;51.420;7.036;2023-04-24T05:34:08;14.90;;;9.40;;
18623;SDS011;9441;51.420;7.036;2023-04-24T05:35:14;21.07;;;10.13;;
18623;SDS011;9441;51.420;7.036;2023-04-24T05:36:16;16.73;;;10.40;;
18623;SDS011;9441;51.420;7.036;2023-04-24T05:37:18;16.07;;;9.67;;
18623;SDS011;9441;51.420;7.036;2023-04-24T05:38:20;17.63;;;10.70;;
18623;SDS011;9441;51.420;7.036;2023-04-24T05:39:22;17.23;;;10.63;;
18623;SDS011;9441;51.420;7.036;2023-04-24T05:40:25;19.27;;;11.03;;
18623;SDS011;9441;51.420;7.036;2023-04-24T05:41:27;21.27;;;10.80;;
18623;SDS011;9441;51.420;7.036;2023-04-24T05:42:29;17.23;;;10.47;;
18623;SDS011;9441;51.420;7.036;2023-04-24T05:43:31;16.27;;;10.20;;
18623;SDS011;9441;51.420;7.036;2023-04-24T05:44:33;21.87;;;10.03;;
18623;SDS011;9441;51.420;7.036;2023-04-24T05:45:36;18.47;;;10.60;;
18623;SDS011;9441;51.420;7.036;2023-04-24T05:46:37;19.23;;;10.67;;
18623;SDS011;9441;51.420;7.036;2023-04-24T05:47:41;19.67;;;10.47;;
18623;SDS011;9441;51.420;7.036;2023-04-24T05:48:42;19.10;;;10.93;;
18623;SDS011;9441;51.420;7.036;2023-04-24T05:49:45;21.00;;;10.60;;
18623;SDS011;9441;51.420;7.036;2023-04-24T05:50:47;19.87;;;11.37;;
18623;SDS011;9441;51.420;7.036;2023-04-24T05:51:49;19.10;;;11.13;;
18623;SDS011;9441;51.420;7.036;2023-04-24T05:52:51;20.77;;;10.93;;
18623;SDS011;9441;51.420;7.036;2023-04-24T05:53:59;21.87;;;10.50;;
18623;SDS011;9441;51.420;7.036;2023-04-24T05:55:03;18.97;;;10.00;;
18623;SDS011;9441;51.420;7.036;2023-04-24T05:56:07;17.37;;;10.47;;
18623;SDS011;9441;51.420;7.036;2023-04-24T05:57:10;20.10;;;11.27;;
18623;SDS011;9441;51.420;7.036;2023-04-24T05:58:26;17.20;;;10.57;;
18623;SDS011;9441;51.420;7.036;2023-04-24T05:59:28;16.53;;;10.13;;
18623;SDS011;9441;51.420;7.036;2023-04-24T06:00:31;18.30;;;10.63;;
18623;SDS011;9441;51.420;7.036;2023-04-24T06:01:39;16.20;;;10.20;;
18623;SDS011;9441;51.420;7.036;2023-04-24T06:02:50;17.73;;;10.80;;
18623;SDS011;9441;51.420;7.036;2023-04-24T06:03:55;15.97;;;9.60;;
18623;SDS011;9441;51.420;7.036;2023-04-24T06:04:58;17.23;;;9.83;;
18623;SDS011;9441;51.420;7.036;2023-04-24T06:06:01;15.17;;;10.13;;
18623;SDS011;9441;51.420;7.036;2023-04-24T06:07:02;16.67;;;10.03;;
18623;SDS011;9441;51.420;7.036;2023-04-24T06:08:05;14.87;;;9.90;;
18623;SDS011;9441;51.420;7.036;2023-04-24T06:09:10;16.00;;;9.90;;
18623;SDS011;9441;51.420;7.036;2023-04-24T06:10:13;17.10;;;9.47;;
18623;SDS011;9441;51.420;7.036;2023-04-24T06:11:16;19.43;;;9.93;;
18623;SDS011;9441;51.420;7.036;2023-04-24T06:12:18;17.77;;;9.80;;
18623;SDS011;9441;51.420;7.036;2023-04-24T06:13:35;16.17;;;9.03;;
18623;SDS011;9441;51.420;7.036;2023-04-24T06:15:10;14.60;;;8.80;;
18623;SDS011;9441;51.420;7.036;2023-04-24T06:16:29;19.07;;;9.93;;
18623;SDS011;9441;51.420;7.036;2023-04-24T06:17:37;18.90;;;9.10;;
18623;SDS011;9441;51.420;7.036;2023-04-24T06:18:41;17.00;;;9.53;;
18623;SDS011;9441;51.420;7.036;2023-04-24T06:19:43;14.30;;;9.03;;
18623;SDS011;9441;51.420;7.036;2023-04-24T06:20:45;18.70;;;9.63;;
18623;SDS011;9441;51.420;7.036;2023-04-24T06:21:47;19.30;;;9.67;;
18623;SDS011;9441;51.420;7.036;2023-04-24T06:22:49;16.67;;;9.23;;